createdAt,value
2019-06-01T00:00:10.331Z,45.00
2019-06-01T00:00:55.534Z,45.00
2019-06-01T00:01:55.608Z,45.00
2019-06-01T00:02:57.195Z,67.50
2019-06-01T00:03:55.538Z,45.00
2019-06-01T00:04:55.613Z,45.00
2019-06-01T00:05:55.610Z,45.00
2019-06-01T00:06:55.549Z,45.00
2019-06-01T00:07:55.610Z,45.00
2019-06-01T00:08:55.612Z,45.00
2019-06-01T00:09:55.489Z,22.50
2019-06-01T00:10:55.611Z,22.50
2019-06-01T00:11:55.491Z,45.00
2019-06-01T00:12:55.543Z,67.50
2019-06-01T00:13:55.546Z,45.00
2019-06-01T00:14:55.567Z,45.00
2019-06-01T00:15:55.564Z,45.00
2019-06-01T00:16:55.553Z,22.50
2019-06-01T00:17:55.521Z,22.50
2019-06-01T00:18:55.617Z,22.50
2019-06-01T00:19:55.618Z,22.50
2019-06-01T00:20:55.619Z,45.00
2019-06-01T00:21:55.561Z,45.00
2019-06-01T00:22:55.555Z,45.00
2019-06-01T00:23:55.545Z,45.00
2019-06-01T00:24:55.550Z,45.00
2019-06-01T00:25:55.628Z,67.50
2019-06-01T00:26:55.560Z,67.50
2019-06-01T00:27:55.549Z,45.00
2019-06-01T00:28:55.631Z,45.00
2019-06-01T00:29:55.569Z,45.00
2019-06-01T00:30:55.556Z,45.00
2019-06-01T00:31:55.642Z,45.00
2019-06-01T00:32:55.626Z,45.00
2019-06-01T00:33:55.559Z,45.00
2019-06-01T00:34:55.639Z,45.00
2019-06-01T00:35:55.555Z,45.00
2019-06-01T00:36:55.560Z,45.00
2019-06-01T00:37:55.631Z,45.00
2019-06-01T00:38:55.575Z,67.50
2019-06-01T00:39:55.586Z,45.00
2019-06-01T00:40:55.585Z,45.00
2019-06-01T00:41:55.640Z,45.00
2019-06-01T00:42:55.582Z,67.50
2019-06-01T00:43:55.573Z,90.00
2019-06-01T00:44:55.590Z,90.00
2019-06-01T00:45:55.647Z,90.00
2019-06-01T00:46:55.648Z,90.00
2019-06-01T00:47:55.656Z,90.00
2019-06-01T00:48:55.552Z,67.50
2019-06-01T00:49:55.639Z,67.50
2019-06-01T00:50:55.582Z,67.50
2019-06-01T00:51:55.533Z,67.50
2019-06-01T00:52:55.564Z,45.00
2019-06-01T00:53:55.627Z,45.00
2019-06-01T00:54:55.630Z,67.50
2019-06-01T00:55:55.552Z,45.00
2019-06-01T00:56:55.639Z,67.50
2019-06-01T00:57:55.699Z,67.50
2019-06-01T00:58:55.631Z,67.50
2019-06-01T00:59:55.612Z,67.50
2019-06-01T01:00:55.600Z,67.50
2019-06-01T01:01:55.549Z,67.50
2019-06-01T01:02:55.584Z,45.00
2019-06-01T01:03:55.533Z,67.50
2019-06-01T01:04:55.649Z,67.50
2019-06-01T01:05:55.669Z,67.50
2019-06-01T01:06:55.558Z,67.50
2019-06-01T01:07:55.618Z,45.00
2019-06-01T01:08:55.587Z,67.50
2019-06-01T01:09:55.656Z,45.00
2019-06-01T01:10:55.666Z,45.00
2019-06-01T01:11:55.594Z,45.00
2019-06-01T01:12:55.657Z,45.00
2019-06-01T01:13:55.591Z,45.00
2019-06-01T01:14:55.661Z,90.00
2019-06-01T01:15:55.658Z,22.50
2019-06-01T01:16:55.811Z,0.00
2019-06-01T01:17:56.190Z,67.50
2019-06-01T01:18:55.978Z,112.50
2019-06-01T01:19:56.043Z,67.50
2019-06-01T01:20:56.275Z,45.00
2019-06-01T01:21:56.336Z,45.00
2019-06-01T01:22:56.468Z,67.50
2019-06-01T01:23:56.656Z,67.50
2019-06-01T01:24:56.548Z,90.00
2019-06-01T01:25:56.653Z,67.50
2019-06-01T01:26:56.700Z,67.50
2019-06-01T01:27:56.914Z,67.50
2019-06-01T01:28:56.926Z,157.50
2019-06-01T01:29:55.670Z,67.50
2019-06-01T01:31:06.507Z,45.00
2019-06-01T01:31:55.679Z,22.50
2019-06-01T01:32:55.940Z,22.50
2019-06-01T01:33:55.680Z,22.50
2019-06-01T01:34:55.649Z,45.00
2019-06-01T01:35:55.889Z,45.00
2019-06-01T01:36:56.079Z,180.00
2019-06-01T01:37:55.945Z,67.50
2019-06-01T01:38:56.243Z,45.00
2019-06-01T01:39:56.296Z,45.00
2019-06-01T01:40:56.263Z,45.00
2019-06-01T01:41:56.311Z,45.00
2019-06-01T01:42:56.496Z,45.00
2019-06-01T01:43:56.550Z,45.00
2019-06-01T01:44:56.627Z,22.50
2019-06-01T01:45:56.878Z,45.00
2019-06-01T01:46:56.891Z,22.50
2019-06-01T01:47:57.041Z,22.50
2019-06-01T01:48:56.182Z,45.00
2019-06-01T01:49:56.129Z,45.00
2019-06-01T01:50:56.424Z,45.00
2019-06-01T01:51:55.643Z,45.00
2019-06-01T01:52:57.056Z,45.00
2019-06-01T01:53:56.662Z,45.00
2019-06-01T01:54:56.751Z,45.00
2019-06-01T01:55:57.164Z,22.50
2019-06-01T01:56:56.176Z,45.00
2019-06-01T01:57:55.598Z,45.00
2019-06-01T01:58:56.476Z,45.00
2019-06-01T01:59:55.696Z,45.00
2019-06-01T02:00:56.835Z,45.00
2019-06-01T02:01:56.554Z,45.00
2019-06-01T02:02:55.890Z,45.00
2019-06-01T02:03:57.285Z,45.00
2019-06-01T02:04:55.863Z,45.00
2019-06-01T02:05:56.890Z,22.50
2019-06-01T02:06:55.948Z,22.50
2019-06-01T02:07:55.649Z,45.00
2019-06-01T02:08:55.713Z,22.50
2019-06-01T02:09:55.715Z,22.50
2019-06-01T02:10:55.723Z,22.50
2019-06-01T02:11:55.717Z,22.50
2019-06-01T02:12:55.730Z,45.00
2019-06-01T02:13:55.673Z,45.00
2019-06-01T02:14:55.670Z,45.00
2019-06-01T02:15:56.183Z,22.50
2019-06-01T02:16:56.246Z,22.50
2019-06-01T02:17:56.044Z,22.50
2019-06-01T02:18:57.192Z,45.00
2019-06-01T02:19:56.091Z,22.50
2019-06-01T02:20:56.274Z,45.00
2019-06-01T02:21:56.453Z,45.00
2019-06-01T02:22:56.781Z,45.00
2019-06-01T02:23:56.871Z,67.50
2019-06-01T02:24:55.860Z,45.00
2019-06-01T02:25:56.841Z,45.00
2019-06-01T02:26:57.122Z,45.00
2019-06-01T02:27:57.205Z,45.00
2019-06-01T02:28:55.639Z,45.00
2019-06-01T02:29:55.656Z,67.50
2019-06-01T02:30:56.222Z,67.50
2019-06-01T02:31:56.651Z,45.00
2019-06-01T02:32:56.347Z,45.00
2019-06-01T02:33:56.336Z,67.50
2019-06-01T02:34:56.417Z,45.00
2019-06-01T02:35:56.305Z,67.50
2019-06-01T02:36:56.481Z,67.50
2019-06-01T02:37:56.441Z,67.50
2019-06-01T02:38:56.502Z,67.50
2019-06-01T02:39:56.736Z,67.50
2019-06-01T02:40:57.104Z,67.50
2019-06-01T02:41:56.780Z,45.00
2019-06-01T02:42:57.132Z,45.00
2019-06-01T02:43:57.343Z,45.00
2019-06-01T02:44:57.292Z,45.00
2019-06-01T02:45:56.298Z,45.00
2019-06-01T02:46:56.975Z,45.00
2019-06-01T02:47:57.405Z,45.00
2019-06-01T02:48:57.258Z,45.00
2019-06-01T02:49:56.132Z,45.00
2019-06-01T02:50:55.855Z,45.00
2019-06-01T02:51:55.744Z,45.00
2019-06-01T02:52:55.682Z,45.00
2019-06-01T02:53:55.700Z,45.00
2019-06-01T02:54:55.704Z,45.00
2019-06-01T02:55:55.861Z,67.50
2019-06-01T02:56:55.874Z,67.50
2019-06-01T02:57:56.013Z,67.50
2019-06-01T02:58:56.114Z,67.50
2019-06-01T02:59:56.308Z,67.50
2019-06-01T03:00:56.576Z,67.50
2019-06-01T03:01:58.212Z,67.50
2019-06-01T03:02:56.571Z,112.50
2019-06-01T03:03:57.414Z,112.50
2019-06-01T03:04:57.015Z,67.50
2019-06-01T03:05:55.742Z,45.00
2019-06-01T03:06:55.677Z,67.50
2019-06-01T03:07:55.740Z,90.00
2019-06-01T03:08:55.687Z,90.00
2019-06-01T03:09:55.756Z,90.00
2019-06-01T03:10:55.767Z,90.00
2019-06-01T03:11:55.687Z,90.00
2019-06-01T03:12:55.766Z,90.00
2019-06-01T03:13:55.771Z,90.00
2019-06-01T03:14:55.688Z,90.00
2019-06-01T03:15:55.709Z,67.50
2019-06-01T03:16:55.693Z,45.00
2019-06-01T03:17:55.768Z,45.00
2019-06-01T03:18:55.700Z,45.00
2019-06-01T03:19:55.699Z,45.00
2019-06-01T03:20:55.826Z,45.00
2019-06-01T03:21:55.767Z,22.50
2019-06-01T03:22:55.763Z,22.50
2019-06-01T03:23:55.694Z,90.00
2019-06-01T03:24:55.768Z,315.00
2019-06-01T03:25:55.694Z,270.00
2019-06-01T03:26:55.914Z,45.00
2019-06-01T03:27:55.781Z,22.50
2019-06-01T03:28:55.713Z,45.00
2019-06-01T03:29:55.756Z,67.50
2019-06-01T03:30:55.757Z,67.50
2019-06-01T03:31:55.696Z,45.00
2019-06-01T03:32:55.763Z,67.50
2019-06-01T03:33:55.691Z,22.50
2019-06-01T03:34:55.690Z,90.00
2019-06-01T03:35:55.674Z,22.50
2019-06-01T03:36:56.358Z,22.50
2019-06-01T03:37:55.760Z,157.50
2019-06-01T03:38:55.760Z,45.00
2019-06-01T03:39:55.766Z,22.50
2019-06-01T03:40:55.766Z,22.50
2019-06-01T03:41:55.769Z,45.00
2019-06-01T03:42:55.690Z,45.00
2019-06-01T03:43:55.699Z,67.50
2019-06-01T03:44:55.696Z,67.50
2019-06-01T03:45:55.772Z,67.50
2019-06-01T03:46:55.684Z,45.00
2019-06-01T03:47:55.774Z,22.50
2019-06-01T03:48:55.772Z,135.00
2019-06-01T03:49:55.777Z,22.50
2019-06-01T03:50:55.706Z,22.50
2019-06-01T03:51:55.775Z,22.50
2019-06-01T03:52:55.701Z,22.50
2019-06-01T03:53:55.700Z,45.00
2019-06-01T03:54:55.781Z,22.50
2019-06-01T03:55:55.700Z,90.00
2019-06-01T03:56:55.732Z,22.50
2019-06-01T03:57:55.778Z,22.50
2019-06-01T03:58:55.705Z,22.50
2019-06-01T03:59:55.720Z,22.50
2019-06-01T04:00:55.782Z,22.50
2019-06-01T04:01:55.717Z,22.50
2019-06-01T04:02:55.712Z,22.50
2019-06-01T04:03:55.785Z,22.50
2019-06-01T04:04:55.784Z,22.50
2019-06-01T04:05:55.782Z,45.00
2019-06-01T04:06:55.789Z,67.50
2019-06-01T04:07:55.728Z,90.00
2019-06-01T04:08:55.787Z,67.50
2019-06-01T04:09:55.731Z,67.50
2019-06-01T04:10:55.807Z,90.00
2019-06-01T04:11:55.797Z,45.00
2019-06-01T04:12:55.811Z,67.50
2019-06-01T04:13:55.748Z,67.50
2019-06-01T04:14:55.799Z,90.00
2019-06-01T04:15:55.737Z,90.00
2019-06-01T04:16:55.806Z,90.00
2019-06-01T04:17:55.761Z,67.50
2019-06-01T04:18:55.806Z,67.50
2019-06-01T04:19:55.780Z,90.00
2019-06-01T04:20:55.746Z,90.00
2019-06-01T04:21:55.812Z,90.00
2019-06-01T04:22:55.735Z,90.00
2019-06-01T04:23:55.742Z,90.00
2019-06-01T04:24:55.757Z,112.50
2019-06-01T04:25:55.824Z,135.00
2019-06-01T04:26:55.807Z,135.00
2019-06-01T04:27:55.745Z,135.00
2019-06-01T04:28:55.815Z,135.00
2019-06-01T04:29:55.811Z,67.50
2019-06-01T04:30:55.758Z,67.50
2019-06-01T04:31:55.815Z,90.00
2019-06-01T04:32:55.749Z,90.00
2019-06-01T04:33:55.820Z,112.50
2019-06-01T04:34:55.819Z,90.00
2019-06-01T04:35:55.746Z,90.00
2019-06-01T04:36:55.746Z,67.50
2019-06-01T04:37:55.748Z,90.00
2019-06-01T04:38:55.816Z,135.00
2019-06-01T04:39:55.816Z,135.00
2019-06-01T04:40:55.741Z,135.00
2019-06-01T04:41:55.738Z,157.50
2019-06-01T04:42:55.772Z,157.50
2019-06-01T04:43:55.813Z,180.00
2019-06-01T04:44:55.820Z,180.00
2019-06-01T04:45:55.814Z,157.50
2019-06-01T04:46:55.728Z,157.50
2019-06-01T04:47:55.728Z,90.00
2019-06-01T04:48:55.761Z,67.50
2019-06-01T04:49:55.814Z,67.50
2019-06-01T04:50:55.742Z,90.00
2019-06-01T04:51:55.754Z,90.00
2019-06-01T04:52:55.745Z,90.00
2019-06-01T04:53:55.820Z,112.50
2019-06-01T04:54:55.757Z,67.50
2019-06-01T04:55:55.822Z,90.00
2019-06-01T04:56:55.756Z,112.50
2019-06-01T04:57:55.825Z,90.00
2019-06-01T04:58:55.825Z,67.50
2019-06-01T04:59:55.771Z,90.00
2019-06-01T05:00:55.838Z,90.00
2019-06-01T05:01:55.846Z,90.00
2019-06-01T05:03:04.992Z,67.50
2019-06-01T05:03:55.929Z,135.00
2019-06-01T05:04:55.781Z,90.00
2019-06-01T05:05:55.773Z,90.00
2019-06-01T05:06:55.899Z,90.00
2019-06-01T05:07:55.836Z,67.50
2019-06-01T05:08:55.845Z,67.50
2019-06-01T05:09:55.854Z,135.00
2019-06-01T05:10:55.833Z,135.00
2019-06-01T05:11:55.835Z,135.00
2019-06-01T05:12:55.745Z,112.50
2019-06-01T05:13:55.829Z,90.00
2019-06-01T05:14:55.744Z,135.00
2019-06-01T05:15:55.843Z,112.50
2019-06-01T05:16:55.841Z,90.00
2019-06-01T05:17:55.840Z,135.00
2019-06-01T05:18:55.771Z,157.50
2019-06-01T05:19:55.845Z,112.50
2019-06-01T05:20:55.836Z,90.00
2019-06-01T05:21:55.841Z,135.00
2019-06-01T05:22:55.810Z,112.50
2019-06-01T05:23:55.752Z,157.50
2019-06-01T05:24:55.767Z,135.00
2019-06-01T05:25:55.846Z,135.00
2019-06-01T05:26:55.774Z,157.50
2019-06-01T05:27:55.846Z,157.50
2019-06-01T05:28:55.846Z,157.50
2019-06-01T05:29:55.859Z,157.50
2019-06-01T05:30:55.862Z,157.50
2019-06-01T05:31:55.788Z,135.00
2019-06-01T05:32:55.872Z,135.00
2019-06-01T05:33:55.820Z,67.50
2019-06-01T05:34:55.801Z,157.50
2019-06-01T05:35:55.796Z,157.50
2019-06-01T05:36:55.798Z,157.50
2019-06-01T05:37:55.872Z,112.50
2019-06-01T05:38:55.799Z,157.50
2019-06-01T05:39:55.862Z,157.50
2019-06-01T05:40:55.808Z,180.00
2019-06-01T05:41:55.873Z,157.50
2019-06-01T05:42:55.871Z,157.50
2019-06-01T05:43:55.888Z,180.00
2019-06-01T05:44:55.802Z,157.50
2019-06-01T05:45:55.876Z,135.00
2019-06-01T05:46:55.876Z,90.00
2019-06-01T05:47:55.806Z,90.00
2019-06-01T05:48:55.872Z,112.50
2019-06-01T05:49:55.828Z,135.00
2019-06-01T05:50:55.896Z,135.00
2019-06-01T05:51:55.873Z,90.00
2019-06-01T05:52:55.879Z,135.00
2019-06-01T05:53:55.807Z,135.00
2019-06-01T05:54:55.887Z,135.00
2019-06-01T05:55:55.808Z,112.50
2019-06-01T05:56:55.875Z,135.00
2019-06-01T05:57:55.878Z,90.00
2019-06-01T05:58:55.882Z,90.00
2019-06-01T05:59:55.869Z,135.00
2019-06-01T06:00:55.861Z,90.00
2019-06-01T06:01:55.797Z,67.50
2019-06-01T06:02:55.874Z,67.50
2019-06-01T06:03:55.774Z,112.50
2019-06-01T06:04:55.875Z,157.50
2019-06-01T06:05:55.878Z,90.00
2019-06-01T06:06:55.756Z,135.00
2019-06-01T06:07:55.875Z,135.00
2019-06-01T06:08:55.877Z,135.00
2019-06-01T06:09:55.751Z,90.00
2019-06-01T06:10:55.829Z,135.00
2019-06-01T06:11:55.842Z,112.50
2019-06-01T06:12:55.875Z,112.50
2019-06-01T06:13:55.817Z,90.00
2019-06-01T06:14:55.883Z,180.00
2019-06-01T06:15:55.751Z,112.50
2019-06-01T06:16:55.761Z,90.00
2019-06-01T06:17:55.896Z,135.00
2019-06-01T06:18:55.785Z,112.50
2019-06-01T06:19:55.817Z,135.00
2019-06-01T06:20:55.855Z,135.00
2019-06-01T06:21:55.811Z,157.50
2019-06-01T06:22:55.757Z,135.00
2019-06-01T06:23:55.872Z,112.50
2019-06-01T06:24:55.880Z,135.00
2019-06-01T06:25:55.871Z,112.50
2019-06-01T06:26:55.791Z,67.50
2019-06-01T06:27:55.805Z,45.00
2019-06-01T06:28:55.888Z,90.00
2019-06-01T06:29:55.910Z,135.00
2019-06-01T06:30:55.849Z,180.00
2019-06-01T06:31:55.835Z,135.00
2019-06-01T06:32:55.908Z,112.50
2019-06-01T06:33:56.939Z,112.50
2019-06-01T06:34:55.907Z,112.50
2019-06-01T06:35:55.903Z,135.00
2019-06-01T06:36:55.924Z,112.50
2019-06-01T06:37:55.840Z,112.50
2019-06-01T06:38:55.839Z,112.50
2019-06-01T06:39:55.872Z,112.50
2019-06-01T06:40:55.827Z,112.50
2019-06-01T06:41:55.838Z,67.50
2019-06-01T06:42:55.904Z,90.00
2019-06-01T06:43:55.918Z,90.00
2019-06-01T06:44:55.906Z,112.50
2019-06-01T06:45:55.812Z,90.00
2019-06-01T06:46:55.819Z,157.50
2019-06-01T06:47:55.909Z,157.50
2019-06-01T06:48:55.848Z,135.00
2019-06-01T06:49:55.871Z,135.00
2019-06-01T06:50:55.913Z,135.00
2019-06-01T06:51:55.895Z,157.50
2019-06-01T06:52:55.795Z,112.50
2019-06-01T06:53:55.834Z,157.50
2019-06-01T06:54:55.821Z,157.50
2019-06-01T06:55:55.779Z,157.50
2019-06-01T06:56:55.891Z,135.00
2019-06-01T06:57:55.784Z,135.00
2019-06-01T06:58:55.873Z,90.00
2019-06-01T06:59:55.842Z,90.00
2019-06-01T07:00:55.931Z,225.00
2019-06-01T07:01:55.919Z,135.00
2019-06-01T07:02:55.845Z,135.00
2019-06-01T07:04:09.380Z,112.50
2019-06-01T07:04:55.861Z,157.50
2019-06-01T07:05:55.923Z,135.00
2019-06-01T07:06:55.846Z,157.50
2019-06-01T07:07:55.930Z,112.50
2019-06-01T07:08:55.852Z,90.00
2019-06-01T07:09:55.876Z,67.50
2019-06-01T07:10:55.933Z,67.50
2019-06-01T07:11:55.952Z,90.00
2019-06-01T07:12:55.940Z,90.00
2019-06-01T07:13:55.936Z,112.50
2019-06-01T07:14:55.944Z,90.00
2019-06-01T07:15:55.896Z,247.50
2019-06-01T07:16:55.934Z,135.00
2019-06-01T07:17:55.954Z,90.00
2019-06-01T07:18:55.875Z,112.50
2019-06-01T07:19:55.875Z,180.00
2019-06-01T07:20:55.940Z,112.50
2019-06-01T07:21:55.944Z,112.50
2019-06-01T07:22:55.883Z,67.50
2019-06-01T07:23:55.965Z,90.00
2019-06-01T07:24:56.028Z,90.00
2019-06-01T07:25:55.950Z,90.00
2019-06-01T07:26:55.893Z,112.50
2019-06-01T07:27:55.971Z,90.00
2019-06-01T07:28:55.895Z,90.00
2019-06-01T07:29:55.961Z,67.50
2019-06-01T07:30:55.876Z,202.50
2019-06-01T07:31:55.963Z,90.00
2019-06-01T07:32:55.898Z,112.50
2019-06-01T07:33:56.017Z,90.00
2019-06-01T07:34:55.881Z,225.00
2019-06-01T07:35:55.959Z,90.00
2019-06-01T07:36:55.965Z,112.50
2019-06-01T07:37:55.962Z,112.50
2019-06-01T07:38:55.953Z,225.00
2019-06-01T07:39:55.940Z,180.00
2019-06-01T07:40:55.878Z,90.00
2019-06-01T07:41:55.905Z,90.00
2019-06-01T07:42:55.947Z,135.00
2019-06-01T07:43:55.942Z,67.50
2019-06-01T07:44:55.901Z,90.00
2019-06-01T07:45:55.885Z,157.50
2019-06-01T07:46:55.879Z,112.50
2019-06-01T07:47:55.952Z,90.00
2019-06-01T07:48:55.879Z,202.50
2019-06-01T07:49:56.009Z,157.50
2019-06-01T07:50:55.960Z,112.50
2019-06-01T07:51:56.061Z,67.50
2019-06-01T07:52:55.952Z,135.00
2019-06-01T07:53:55.960Z,135.00
2019-06-01T07:54:55.955Z,157.50
2019-06-01T07:55:55.953Z,202.50
2019-06-01T07:56:55.960Z,315.00
2019-06-01T07:57:55.957Z,247.50
2019-06-01T07:58:55.892Z,225.00
2019-06-01T07:59:55.934Z,112.50
2019-06-01T08:00:55.970Z,112.50
2019-06-01T08:01:55.936Z,90.00
2019-06-01T08:02:55.972Z,135.00
2019-06-01T08:03:55.974Z,180.00
2019-06-01T08:04:55.971Z,135.00
2019-06-01T08:05:55.986Z,90.00
2019-06-01T08:06:56.020Z,112.50
2019-06-01T08:07:55.909Z,112.50
2019-06-01T08:08:55.978Z,112.50
2019-06-01T08:09:55.967Z,225.00
2019-06-01T08:10:55.866Z,247.50
2019-06-01T08:11:55.960Z,292.50
2019-06-01T08:12:55.841Z,247.50
2019-06-01T08:13:55.846Z,157.50
2019-06-01T08:14:55.963Z,90.00
2019-06-01T08:15:55.896Z,135.00
2019-06-01T08:16:55.960Z,112.50
2019-06-01T08:17:55.910Z,90.00
2019-06-01T08:18:55.863Z,225.00
2019-06-01T08:19:55.978Z,112.50
2019-06-01T08:20:55.977Z,67.50
2019-06-01T08:21:56.001Z,112.50
2019-06-01T08:22:55.917Z,157.50
2019-06-01T08:23:55.989Z,157.50
2019-06-01T08:24:55.989Z,157.50
2019-06-01T08:25:55.931Z,202.50
2019-06-01T08:26:55.995Z,270.00
2019-06-01T08:27:55.988Z,270.00
2019-06-01T08:28:55.926Z,225.00
2019-06-01T08:29:55.994Z,112.50
2019-06-01T08:30:55.991Z,135.00
2019-06-01T08:31:56.127Z,157.50
2019-06-01T08:32:56.004Z,67.50
2019-06-01T08:33:55.939Z,202.50
2019-06-01T08:35:07.987Z,112.50
2019-06-01T08:35:55.998Z,135.00
2019-06-01T08:36:55.897Z,225.00
2019-06-01T08:37:56.021Z,157.50
2019-06-01T08:38:55.931Z,157.50
2019-06-01T08:39:59.107Z,90.00
2019-06-01T08:40:56.000Z,90.00
2019-06-01T08:41:55.998Z,90.00
2019-06-01T08:42:55.947Z,135.00
2019-06-01T08:43:56.029Z,112.50
2019-06-01T08:44:56.002Z,135.00
2019-06-01T08:45:56.001Z,112.50
2019-06-01T08:46:55.943Z,90.00
2019-06-01T08:47:56.005Z,112.50
2019-06-01T08:48:55.945Z,112.50
2019-06-01T08:49:56.030Z,90.00
2019-06-01T08:50:56.010Z,135.00
2019-06-01T08:51:55.943Z,157.50
2019-06-01T08:52:55.943Z,135.00
2019-06-01T08:53:55.954Z,157.50
2019-06-01T08:54:56.009Z,67.50
2019-06-01T08:55:55.946Z,202.50
2019-06-01T08:56:56.013Z,135.00
2019-06-01T08:57:55.940Z,180.00
2019-06-01T08:58:55.944Z,112.50
2019-06-01T08:59:55.943Z,135.00
2019-06-01T09:00:55.944Z,90.00
2019-06-01T09:01:55.931Z,135.00
2019-06-01T09:02:56.005Z,157.50
2019-06-01T09:03:56.010Z,180.00
2019-06-01T09:04:56.008Z,90.00
2019-06-01T09:05:55.940Z,90.00
2019-06-01T09:06:55.936Z,90.00
2019-06-01T09:07:56.014Z,135.00
2019-06-01T09:08:55.960Z,157.50
2019-06-01T09:09:56.017Z,157.50
2019-06-01T09:10:55.938Z,157.50
2019-06-01T09:11:55.945Z,180.00
2019-06-01T09:12:55.943Z,247.50
2019-06-01T09:13:55.938Z,225.00
2019-06-01T09:14:56.054Z,225.00
2019-06-01T09:15:56.015Z,157.50
2019-06-01T09:16:55.906Z,247.50
2019-06-01T09:17:56.024Z,270.00
2019-06-01T09:18:55.961Z,225.00
2019-06-01T09:19:56.119Z,180.00
2019-06-01T09:20:56.038Z,180.00
2019-06-01T09:21:55.958Z,247.50
2019-06-01T09:22:55.946Z,247.50
2019-06-01T09:23:55.977Z,225.00
2019-06-01T09:24:56.028Z,202.50
2019-06-01T09:25:56.018Z,202.50
2019-06-01T09:26:56.026Z,135.00
2019-06-01T09:27:56.120Z,202.50
2019-06-01T09:28:55.933Z,157.50
2019-06-01T09:29:55.962Z,270.00
2019-06-01T09:30:55.894Z,247.50
2019-06-01T09:31:55.995Z,202.50
2019-06-01T09:32:55.987Z,225.00
2019-06-01T09:33:55.945Z,180.00
2019-06-01T09:34:55.917Z,247.50
2019-06-01T09:35:56.534Z,247.50
2019-06-01T09:36:55.990Z,225.00
2019-06-01T09:37:55.992Z,270.00
2019-06-01T09:38:55.942Z,270.00
2019-06-01T09:39:56.009Z,202.50
2019-06-01T09:40:56.059Z,157.50
2019-06-01T09:41:56.095Z,180.00
2019-06-01T09:42:56.052Z,202.50
2019-06-01T09:43:56.048Z,180.00
2019-06-01T09:44:56.008Z,180.00
2019-06-01T09:45:56.047Z,157.50
2019-06-01T09:46:55.978Z,247.50
2019-06-01T09:47:56.193Z,225.00
2019-06-01T09:48:55.982Z,247.50
2019-06-01T09:49:56.048Z,270.00
2019-06-01T09:50:56.047Z,270.00
2019-06-01T09:51:56.003Z,225.00
2019-06-01T09:52:56.066Z,247.50
2019-06-01T09:53:56.033Z,180.00
2019-06-01T09:54:55.985Z,225.00
2019-06-01T09:55:56.074Z,202.50
2019-06-01T09:56:56.066Z,180.00
2019-06-01T09:57:55.985Z,202.50
2019-06-01T09:58:56.061Z,270.00
2019-06-01T09:59:56.064Z,180.00
2019-06-01T10:00:55.956Z,180.00
2019-06-01T10:01:56.047Z,180.00
2019-06-01T10:02:55.964Z,225.00
2019-06-01T10:03:56.060Z,135.00
2019-06-01T10:04:55.979Z,202.50
2019-06-01T10:06:01.820Z,225.00
2019-06-01T10:06:56.047Z,247.50
2019-06-01T10:07:55.970Z,225.00
2019-06-01T10:08:55.990Z,270.00
2019-06-01T10:09:56.055Z,292.50
2019-06-01T10:10:56.066Z,247.50
2019-06-01T10:11:56.071Z,225.00
2019-06-01T10:12:56.008Z,202.50
2019-06-01T10:13:56.004Z,180.00
2019-06-01T10:14:56.075Z,225.00
2019-06-01T10:15:56.076Z,202.50
2019-06-01T10:16:56.008Z,202.50
2019-06-01T10:17:56.073Z,180.00
2019-06-01T10:18:56.007Z,292.50
2019-06-01T10:19:56.006Z,270.00
2019-06-01T10:20:56.085Z,247.50
2019-06-01T10:21:56.075Z,247.50
2019-06-01T10:22:56.002Z,270.00
2019-06-01T10:23:56.081Z,247.50
2019-06-01T10:24:56.075Z,247.50
2019-06-01T10:25:56.016Z,247.50
2019-06-01T10:26:56.015Z,225.00
2019-06-01T10:27:56.087Z,247.50
2019-06-01T10:28:56.087Z,292.50
2019-06-01T10:29:56.082Z,180.00
2019-06-01T10:30:55.971Z,247.50
2019-06-01T10:31:56.034Z,270.00
2019-06-01T10:32:56.062Z,270.00
2019-06-01T10:33:56.001Z,202.50
2019-06-01T10:34:56.006Z,180.00
2019-06-01T10:35:55.953Z,157.50
2019-06-01T10:36:56.016Z,135.00
2019-06-01T10:37:56.069Z,135.00
2019-06-01T10:38:56.028Z,157.50
2019-06-01T10:39:56.022Z,157.50
2019-06-01T10:40:56.095Z,90.00
2019-06-01T10:41:56.092Z,135.00
2019-06-01T10:42:56.026Z,247.50
2019-06-01T10:43:56.032Z,225.00
2019-06-01T10:44:56.026Z,247.50
2019-06-01T10:45:56.095Z,270.00
2019-06-01T10:46:56.100Z,225.00
2019-06-01T10:47:56.107Z,247.50
2019-06-01T10:48:56.094Z,247.50
2019-06-01T10:49:56.096Z,225.00
2019-06-01T10:50:56.029Z,202.50
2019-06-01T10:51:56.091Z,292.50
2019-06-01T10:52:56.035Z,202.50
2019-06-01T10:53:56.096Z,292.50
2019-06-01T10:54:55.996Z,247.50
2019-06-01T10:55:56.099Z,157.50
2019-06-01T10:56:56.032Z,157.50
2019-06-01T10:57:56.100Z,180.00
2019-06-01T10:59:00.374Z,90.00
2019-06-01T10:59:56.071Z,135.00
2019-06-01T11:00:56.034Z,112.50
2019-06-01T11:01:56.107Z,157.50
2019-06-01T11:02:56.035Z,157.50
2019-06-01T11:03:56.105Z,225.00
2019-06-01T11:04:56.118Z,270.00
2019-06-01T11:05:56.112Z,202.50
2019-06-01T11:06:56.057Z,202.50
2019-06-01T11:07:56.114Z,202.50
2019-06-01T11:08:56.079Z,157.50
2019-06-01T11:09:56.104Z,180.00
2019-06-01T11:10:56.003Z,112.50
2019-06-01T11:11:56.105Z,157.50
2019-06-01T11:12:56.003Z,202.50
2019-06-01T11:13:56.098Z,270.00
2019-06-01T11:14:56.007Z,157.50
2019-06-01T11:15:56.098Z,112.50
2019-06-01T11:16:56.871Z,202.50
2019-06-01T11:17:56.072Z,247.50
2019-06-01T11:18:56.114Z,180.00
2019-06-01T11:19:56.050Z,225.00
2019-06-01T11:20:56.113Z,270.00
2019-06-01T11:21:56.057Z,247.50
2019-06-01T11:22:56.068Z,247.50
2019-06-01T11:23:56.128Z,202.50
2019-06-01T11:24:56.121Z,90.00
2019-06-01T11:25:56.124Z,270.00
2019-06-01T11:26:56.141Z,225.00
2019-06-01T11:27:56.136Z,225.00
2019-06-01T11:28:56.055Z,202.50
2019-06-01T11:29:56.054Z,247.50
2019-06-01T11:30:56.056Z,180.00
2019-06-01T11:31:56.061Z,202.50
2019-06-01T11:32:56.131Z,180.00
2019-06-01T11:33:56.126Z,157.50
2019-06-01T11:34:56.056Z,157.50
2019-06-01T11:35:56.065Z,180.00
2019-06-01T11:37:06.063Z,247.50
2019-06-01T11:37:56.129Z,270.00
2019-06-01T11:38:56.137Z,270.00
2019-06-01T11:39:56.130Z,270.00
2019-06-01T11:40:56.033Z,202.50
2019-06-01T11:41:56.101Z,180.00
2019-06-01T11:42:56.024Z,180.00
2019-06-01T11:43:56.134Z,202.50
2019-06-01T11:44:56.057Z,157.50
2019-06-01T11:45:56.050Z,292.50
2019-06-01T11:46:56.150Z,270.00
2019-06-01T11:47:56.041Z,247.50
2019-06-01T11:48:56.063Z,315.00
2019-06-01T11:49:56.131Z,157.50
2019-06-01T11:50:56.057Z,180.00
2019-06-01T11:51:56.040Z,270.00
2019-06-01T11:52:56.133Z,292.50
2019-06-01T11:53:56.063Z,270.00
2019-06-01T11:54:56.046Z,157.50
2019-06-01T11:55:56.080Z,157.50
2019-06-01T11:56:56.133Z,180.00
2019-06-01T11:57:56.060Z,180.00
2019-06-01T11:58:56.140Z,202.50
2019-06-01T11:59:56.071Z,225.00
2019-06-01T12:00:56.215Z,157.50
2019-06-01T12:01:56.104Z,180.00
2019-06-01T12:02:56.164Z,157.50
2019-06-01T12:03:56.169Z,112.50
2019-06-01T12:04:56.156Z,90.00
2019-06-01T12:05:56.092Z,90.00
2019-06-01T12:06:56.164Z,135.00
2019-06-01T12:07:56.154Z,270.00
2019-06-01T12:08:56.159Z,90.00
2019-06-01T12:09:56.047Z,202.50
2019-06-01T12:10:56.087Z,157.50
2019-06-01T12:11:56.089Z,135.00
2019-06-01T12:12:56.127Z,157.50
2019-06-01T12:13:56.087Z,112.50
2019-06-01T12:14:56.161Z,202.50
2019-06-01T12:15:56.156Z,180.00
2019-06-01T12:16:56.174Z,270.00
2019-06-01T12:17:56.094Z,247.50
2019-06-01T12:18:56.162Z,247.50
2019-06-01T12:19:56.096Z,180.00
2019-06-01T12:20:56.156Z,202.50
2019-06-01T12:21:56.156Z,112.50
2019-06-01T12:22:56.154Z,112.50
2019-06-01T12:23:56.067Z,135.00
2019-06-01T12:24:56.083Z,112.50
2019-06-01T12:25:56.040Z,135.00
2019-06-01T12:26:56.158Z,202.50
2019-06-01T12:27:56.088Z,225.00
2019-06-01T12:28:56.081Z,180.00
2019-06-01T12:29:56.101Z,180.00
2019-06-01T12:30:56.103Z,90.00
2019-06-01T12:31:56.170Z,90.00
2019-06-01T12:32:56.101Z,135.00
2019-06-01T12:33:56.175Z,157.50
2019-06-01T12:34:56.192Z,135.00
2019-06-01T12:35:56.174Z,112.50
2019-06-01T12:36:56.173Z,112.50
2019-06-01T12:38:06.194Z,90.00
2019-06-01T12:38:56.184Z,112.50